El Portal, Florida
Current Conditions -  °F | °C
As of 4:53 AM on Wednesday 26 Nov 2014 (Local Time) from KMIA Reporting Station
Haze Haze  
Wind Chill: 78°   Ceiling: Unl
Heat Index: 81°   Visibility: 6mi
Dew Point: 76°   Wind: 8mph
Humidity: 93%   Direction: 180°S
Pressure: 29.93"   Gusts: NA
Location:  25.852°N, 80.2071°W
Report Text: KMIA 260953Z 18007KT 6SM BR FEW010 SCT025 26/24 A2993 RMK AO2 SLP136 T02560244 $
Loading
Personal Weather Stations






























Interactive Weather Map New forecast layout! Learn more

10-Day Weather Forecast

Advertisements
Track Severe Weather on mobile